sensor_id;sensor_type;location;lat;lon;timestamp;P1;durP1;ratioP1;P2;durP2;ratioP2
11510;SDS011;5812;48.864;9.190;2023-04-15T00:00:45;5.03;;;5.03;;
11510;SDS011;5812;48.864;9.190;2023-04-15T00:03:10;5.20;;;5.20;;
11510;SDS011;5812;48.864;9.190;2023-04-15T00:05:36;4.57;;;4.57;;
11510;SDS011;5812;48.864;9.190;2023-04-15T00:08:02;5.10;;;5.10;;
11510;SDS011;5812;48.864;9.190;2023-04-15T00:10:28;4.73;;;4.73;;
11510;SDS011;5812;48.864;9.190;2023-04-15T00:12:53;5.10;;;5.10;;
11510;SDS011;5812;48.864;9.190;2023-04-15T00:15:19;5.17;;;5.17;;
11510;SDS011;5812;48.864;9.190;2023-04-15T00:17:45;5.30;;;5.30;;
11510;SDS011;5812;48.864;9.190;2023-04-15T00:20:11;5.63;;;5.63;;
11510;SDS011;5812;48.864;9.190;2023-04-15T00:22:36;4.73;;;4.73;;
11510;SDS011;5812;48.864;9.190;2023-04-15T00:25:02;4.43;;;4.43;;
11510;SDS011;5812;48.864;9.190;2023-04-15T00:27:28;5.57;;;5.57;;
11510;SDS011;5812;48.864;9.190;2023-04-15T00:29:54;4.33;;;4.33;;
11510;SDS011;5812;48.864;9.190;2023-04-15T00:32:20;5.47;;;5.47;;
11510;SDS011;5812;48.864;9.190;2023-04-15T00:34:46;5.00;;;5.00;;
11510;SDS011;5812;48.864;9.190;2023-04-15T00:37:11;5.50;;;5.50;;
11510;SDS011;5812;48.864;9.190;2023-04-15T00:39:37;5.17;;;5.17;;
11510;SDS011;5812;48.864;9.190;2023-04-15T00:42:03;5.10;;;5.10;;
11510;SDS011;5812;48.864;9.190;2023-04-15T00:44:29;5.60;;;5.60;;
11510;SDS011;5812;48.864;9.190;2023-04-15T00:46:55;4.87;;;4.87;;
11510;SDS011;5812;48.864;9.190;2023-04-15T00:49:21;5.07;;;5.07;;
11510;SDS011;5812;48.864;9.190;2023-04-15T00:51:47;4.60;;;4.60;;
11510;SDS011;5812;48.864;9.190;2023-04-15T00:54:13;5.60;;;5.60;;
11510;SDS011;5812;48.864;9.190;2023-04-15T00:56:39;5.63;;;5.63;;
11510;SDS011;5812;48.864;9.190;2023-04-15T00:59:05;5.87;;;5.87;;
11510;SDS011;5812;48.864;9.190;2023-04-15T01:01:32;5.07;;;5.07;;
11510;SDS011;5812;48.864;9.190;2023-04-15T01:03:59;5.47;;;5.47;;
11510;SDS011;5812;48.864;9.190;2023-04-15T01:06:25;5.10;;;5.10;;
11510;SDS011;5812;48.864;9.190;2023-04-15T01:08:51;5.80;;;5.80;;
11510;SDS011;5812;48.864;9.190;2023-04-15T01:11:22;5.27;;;5.27;;
11510;SDS011;5812;48.864;9.190;2023-04-15T01:13:48;4.90;;;4.90;;
11510;SDS011;5812;48.864;9.190;2023-04-15T01:16:14;4.73;;;4.73;;
11510;SDS011;5812;48.864;9.190;2023-04-15T01:18:41;5.03;;;5.03;;
11510;SDS011;5812;48.864;9.190;2023-04-15T01:21:07;4.73;;;4.73;;
11510;SDS011;5812;48.864;9.190;2023-04-15T01:23:34;5.60;;;5.60;;
11510;SDS011;5812;48.864;9.190;2023-04-15T01:26:04;5.00;;;5.00;;
11510;SDS011;5812;48.864;9.190;2023-04-15T01:28:31;5.20;;;5.20;;
11510;SDS011;5812;48.864;9.190;2023-04-15T01:31:04;5.30;;;5.30;;
11510;SDS011;5812;48.864;9.190;2023-04-15T01:33:34;5.23;;;5.23;;
11510;SDS011;5812;48.864;9.190;2023-04-15T01:36:00;4.93;;;4.93;;
11510;SDS011;5812;48.864;9.190;2023-04-15T01:38:26;5.60;;;5.60;;
11510;SDS011;5812;48.864;9.190;2023-04-15T01:40:53;5.37;;;5.37;;
11510;SDS011;5812;48.864;9.190;2023-04-15T01:43:18;5.73;;;5.73;;
11510;SDS011;5812;48.864;9.190;2023-04-15T01:45:44;5.53;;;5.53;;
11510;SDS011;5812;48.864;9.190;2023-04-15T01:48:09;5.33;;;5.33;;
11510;SDS011;5812;48.864;9.190;2023-04-15T01:50:36;5.80;;;5.80;;
11510;SDS011;5812;48.864;9.190;2023-04-15T01:53:02;5.53;;;5.53;;
11510;SDS011;5812;48.864;9.190;2023-04-15T01:55:28;5.97;;;5.97;;
11510;SDS011;5812;48.864;9.190;2023-04-15T01:57:54;6.10;;;6.10;;
11510;SDS011;5812;48.864;9.190;2023-04-15T02:00:20;6.13;;;6.13;;
11510;SDS011;5812;48.864;9.190;2023-04-15T02:02:47;5.83;;;5.83;;
11510;SDS011;5812;48.864;9.190;2023-04-15T02:05:13;5.87;;;5.87;;
11510;SDS011;5812;48.864;9.190;2023-04-15T02:07:40;5.80;;;5.80;;
11510;SDS011;5812;48.864;9.190;2023-04-15T02:10:08;5.90;;;5.90;;
11510;SDS011;5812;48.864;9.190;2023-04-15T02:12:35;5.43;;;5.43;;
11510;SDS011;5812;48.864;9.190;2023-04-15T02:15:01;5.50;;;5.50;;
11510;SDS011;5812;48.864;9.190;2023-04-15T02:17:26;5.80;;;5.80;;
11510;SDS011;5812;48.864;9.190;2023-04-15T02:19:52;5.00;;;5.00;;
11510;SDS011;5812;48.864;9.190;2023-04-15T02:22:20;5.30;;;5.30;;
11510;SDS011;5812;48.864;9.190;2023-04-15T02:24:46;6.03;;;6.03;;
11510;SDS011;5812;48.864;9.190;2023-04-15T02:27:15;6.10;;;6.10;;
11510;SDS011;5812;48.864;9.190;2023-04-15T02:29:42;6.40;;;6.40;;
11510;SDS011;5812;48.864;9.190;2023-04-15T02:32:09;5.60;;;5.60;;
11510;SDS011;5812;48.864;9.190;2023-04-15T02:34:36;5.90;;;5.90;;
11510;SDS011;5812;48.864;9.190;2023-04-15T02:37:05;5.93;;;5.93;;
11510;SDS011;5812;48.864;9.190;2023-04-15T02:39:31;6.27;;;6.27;;
11510;SDS011;5812;48.864;9.190;2023-04-15T02:41:57;6.10;;;6.10;;
11510;SDS011;5812;48.864;9.190;2023-04-15T02:44:24;5.80;;;5.80;;
11510;SDS011;5812;48.864;9.190;2023-04-15T02:46:49;5.70;;;5.70;;
11510;SDS011;5812;48.864;9.190;2023-04-15T02:49:16;5.80;;;5.80;;
11510;SDS011;5812;48.864;9.190;2023-04-15T02:51:42;5.63;;;5.63;;
11510;SDS011;5812;48.864;9.190;2023-04-15T02:54:13;5.30;;;5.30;;
11510;SDS011;5812;48.864;9.190;2023-04-15T02:56:40;5.33;;;5.33;;
11510;SDS011;5812;48.864;9.190;2023-04-15T02:59:06;5.63;;;5.63;;
11510;SDS011;5812;48.864;9.190;2023-04-15T03:01:32;5.07;;;5.07;;
11510;SDS011;5812;48.864;9.190;2023-04-15T03:03:57;5.90;;;5.90;;
11510;SDS011;5812;48.864;9.190;2023-04-15T03:06:23;5.37;;;5.37;;
11510;SDS011;5812;48.864;9.190;2023-04-15T03:08:49;5.90;;;5.90;;
11510;SDS011;5812;48.864;9.190;2023-04-15T03:11:15;5.67;;;5.67;;
11510;SDS011;5812;48.864;9.190;2023-04-15T03:13:41;6.13;;;6.13;;
11510;SDS011;5812;48.864;9.190;2023-04-15T03:16:07;5.80;;;5.80;;
11510;SDS011;5812;48.864;9.190;2023-04-15T03:18:33;5.73;;;5.73;;
11510;SDS011;5812;48.864;9.190;2023-04-15T03:20:58;5.63;;;5.63;;
11510;SDS011;5812;48.864;9.190;2023-04-15T03:23:24;5.90;;;5.90;;
11510;SDS011;5812;48.864;9.190;2023-04-15T03:25:50;5.97;;;5.97;;
11510;SDS011;5812;48.864;9.190;2023-04-15T03:28:15;5.87;;;5.87;;
11510;SDS011;5812;48.864;9.190;2023-04-15T03:30:41;5.23;;;5.23;;
11510;SDS011;5812;48.864;9.190;2023-04-15T03:33:07;5.47;;;5.47;;
11510;SDS011;5812;48.864;9.190;2023-04-15T03:35:32;6.67;;;6.67;;
11510;SDS011;5812;48.864;9.190;2023-04-15T03:37:58;5.47;;;5.47;;
11510;SDS011;5812;48.864;9.190;2023-04-15T03:40:24;5.93;;;5.93;;
11510;SDS011;5812;48.864;9.190;2023-04-15T03:42:50;6.20;;;6.20;;
11510;SDS011;5812;48.864;9.190;2023-04-15T03:45:15;5.80;;;5.80;;
11510;SDS011;5812;48.864;9.190;2023-04-15T03:47:41;5.53;;;5.53;;
11510;SDS011;5812;48.864;9.190;2023-04-15T03:50:07;5.17;;;5.17;;
11510;SDS011;5812;48.864;9.190;2023-04-15T03:52:33;5.87;;;5.87;;
11510;SDS011;5812;48.864;9.190;2023-04-15T03:54:58;5.60;;;5.60;;
11510;SDS011;5812;48.864;9.190;2023-04-15T03:57:24;5.43;;;5.43;;
11510;SDS011;5812;48.864;9.190;2023-04-15T03:59:49;5.50;;;5.50;;
11510;SDS011;5812;48.864;9.190;2023-04-15T04:02:15;6.40;;;6.40;;
11510;SDS011;5812;48.864;9.190;2023-04-15T04:04:41;5.70;;;5.70;;
11510;SDS011;5812;48.864;9.190;2023-04-15T04:07:07;5.57;;;5.57;;
11510;SDS011;5812;48.864;9.190;2023-04-15T04:09:33;5.57;;;5.57;;
11510;SDS011;5812;48.864;9.190;2023-04-15T04:11:59;5.70;;;5.70;;
11510;SDS011;5812;48.864;9.190;2023-04-15T04:14:25;5.53;;;5.53;;
11510;SDS011;5812;48.864;9.190;2023-04-15T04:16:53;6.13;;;6.13;;
11510;SDS011;5812;48.864;9.190;2023-04-15T04:19:19;6.23;;;6.23;;
11510;SDS011;5812;48.864;9.190;2023-04-15T04:21:45;6.50;;;6.50;;
11510;SDS011;5812;48.864;9.190;2023-04-15T04:24:10;7.00;;;7.00;;
11510;SDS011;5812;48.864;9.190;2023-04-15T04:26:36;5.73;;;5.73;;
11510;SDS011;5812;48.864;9.190;2023-04-15T04:29:02;5.90;;;5.90;;
11510;SDS011;5812;48.864;9.190;2023-04-15T04:31:27;6.37;;;6.37;;
11510;SDS011;5812;48.864;9.190;2023-04-15T04:33:53;6.33;;;6.33;;
11510;SDS011;5812;48.864;9.190;2023-04-15T04:36:18;6.60;;;6.60;;
11510;SDS011;5812;48.864;9.190;2023-04-15T04:38:44;5.83;;;5.83;;
11510;SDS011;5812;48.864;9.190;2023-04-15T04:41:10;5.83;;;5.83;;
11510;SDS011;5812;48.864;9.190;2023-04-15T04:43:35;5.97;;;5.97;;
11510;SDS011;5812;48.864;9.190;2023-04-15T04:46:01;5.47;;;5.47;;
11510;SDS011;5812;48.864;9.190;2023-04-15T04:48:26;5.93;;;5.93;;
11510;SDS011;5812;48.864;9.190;2023-04-15T04:50:52;5.87;;;5.87;;
11510;SDS011;5812;48.864;9.190;2023-04-15T04:53:18;5.60;;;5.60;;
11510;SDS011;5812;48.864;9.190;2023-04-15T04:55:43;5.40;;;5.40;;
11510;SDS011;5812;48.864;9.190;2023-04-15T04:58:09;6.00;;;6.00;;
11510;SDS011;5812;48.864;9.190;2023-04-15T05:00:35;5.93;;;5.93;;
11510;SDS011;5812;48.864;9.190;2023-04-15T05:03:02;6.60;;;6.60;;
11510;SDS011;5812;48.864;9.190;2023-04-15T05:05:28;6.03;;;6.03;;
11510;SDS011;5812;48.864;9.190;2023-04-15T05:07:53;7.40;;;7.40;;
11510;SDS011;5812;48.864;9.190;2023-04-15T05:10:20;5.97;;;5.97;;
11510;SDS011;5812;48.864;9.190;2023-04-15T05:12:46;6.93;;;6.93;;
11510;SDS011;5812;48.864;9.190;2023-04-15T05:15:11;6.80;;;6.80;;
11510;SDS011;5812;48.864;9.190;2023-04-15T05:17:37;7.30;;;7.30;;
11510;SDS011;5812;48.864;9.190;2023-04-15T05:20:03;7.43;;;7.43;;
11510;SDS011;5812;48.864;9.190;2023-04-15T05:22:28;7.73;;;7.73;;
11510;SDS011;5812;48.864;9.190;2023-04-15T05:24:54;8.10;;;8.10;;
11510;SDS011;5812;48.864;9.190;2023-04-15T05:27:20;7.57;;;7.57;;
11510;SDS011;5812;48.864;9.190;2023-04-15T05:29:46;8.50;;;8.50;;
11510;SDS011;5812;48.864;9.190;2023-04-15T05:32:12;8.43;;;8.43;;
11510;SDS011;5812;48.864;9.190;2023-04-15T05:34:37;9.00;;;9.00;;
11510;SDS011;5812;48.864;9.190;2023-04-15T05:37:03;8.43;;;8.43;;
11510;SDS011;5812;48.864;9.190;2023-04-15T05:39:29;8.50;;;8.50;;
11510;SDS011;5812;48.864;9.190;2023-04-15T05:41:56;8.40;;;8.40;;
11510;SDS011;5812;48.864;9.190;2023-04-15T05:44:22;8.37;;;8.37;;
11510;SDS011;5812;48.864;9.190;2023-04-15T05:46:48;8.57;;;8.57;;
11510;SDS011;5812;48.864;9.190;2023-04-15T05:49:13;9.07;;;9.07;;
11510;SDS011;5812;48.864;9.190;2023-04-15T05:51:39;8.23;;;8.23;;
11510;SDS011;5812;48.864;9.190;2023-04-15T05:54:05;7.93;;;7.93;;
11510;SDS011;5812;48.864;9.190;2023-04-15T05:56:30;9.10;;;9.10;;
11510;SDS011;5812;48.864;9.190;2023-04-15T05:58:56;9.17;;;9.17;;
11510;SDS011;5812;48.864;9.190;2023-04-15T06:01:22;8.87;;;8.87;;
11510;SDS011;5812;48.864;9.190;2023-04-15T06:03:48;10.30;;;10.30;;
11510;SDS011;5812;48.864;9.190;2023-04-15T06:06:14;8.47;;;8.47;;
11510;SDS011;5812;48.864;9.190;2023-04-15T06:08:39;8.70;;;8.70;;
11510;SDS011;5812;48.864;9.190;2023-04-15T06:11:05;8.27;;;8.27;;
11510;SDS011;5812;48.864;9.190;2023-04-15T06:13:31;7.87;;;7.87;;
11510;SDS011;5812;48.864;9.190;2023-04-15T06:15:57;6.33;;;6.33;;
11510;SDS011;5812;48.864;9.190;2023-04-15T06:18:22;5.77;;;5.77;;
11510;SDS011;5812;48.864;9.190;2023-04-15T06:20:48;5.90;;;5.90;;
11510;SDS011;5812;48.864;9.190;2023-04-15T06:23:13;5.10;;;5.10;;
11510;SDS011;5812;48.864;9.190;2023-04-15T06:25:39;5.90;;;5.90;;
11510;SDS011;5812;48.864;9.190;2023-04-15T06:28:05;5.47;;;5.47;;
11510;SDS011;5812;48.864;9.190;2023-04-15T06:30:30;5.37;;;5.37;;
11510;SDS011;5812;48.864;9.190;2023-04-15T06:32:56;4.83;;;4.83;;
11510;SDS011;5812;48.864;9.190;2023-04-15T06:35:22;4.63;;;4.63;;
11510;SDS011;5812;48.864;9.190;2023-04-15T06:37:47;4.57;;;4.57;;
11510;SDS011;5812;48.864;9.190;2023-04-15T06:40:13;5.00;;;5.00;;
11510;SDS011;5812;48.864;9.190;2023-04-15T06:42:38;4.37;;;4.37;;
11510;SDS011;5812;48.864;9.190;2023-04-15T06:45:04;3.97;;;3.97;;
11510;SDS011;5812;48.864;9.190;2023-04-15T06:47:30;3.87;;;3.87;;
11510;SDS011;5812;48.864;9.190;2023-04-15T06:49:56;4.63;;;4.63;;
11510;SDS011;5812;48.864;9.190;2023-04-15T06:52:21;3.93;;;3.93;;
11510;SDS011;5812;48.864;9.190;2023-04-15T06:54:47;4.07;;;4.07;;
11510;SDS011;5812;48.864;9.190;2023-04-15T06:57:13;4.10;;;4.10;;
11510;SDS011;5812;48.864;9.190;2023-04-15T06:59:38;3.77;;;3.77;;
11510;SDS011;5812;48.864;9.190;2023-04-15T07:02:04;3.20;;;3.20;;
11510;SDS011;5812;48.864;9.190;2023-04-15T07:04:31;4.00;;;4.00;;
11510;SDS011;5812;48.864;9.190;2023-04-15T07:06:57;4.20;;;4.20;;
11510;SDS011;5812;48.864;9.190;2023-04-15T07:09:26;4.33;;;4.33;;
11510;SDS011;5812;48.864;9.190;2023-04-15T07:11:51;3.77;;;3.77;;
11510;SDS011;5812;48.864;9.190;2023-04-15T07:14:17;3.30;;;3.30;;
11510;SDS011;5812;48.864;9.190;2023-04-15T07:16:43;3.23;;;3.23;;
11510;SDS011;5812;48.864;9.190;2023-04-15T07:19:08;3.93;;;3.93;;
11510;SDS011;5812;48.864;9.190;2023-04-15T07:21:34;4.60;;;4.60;;
11510;SDS011;5812;48.864;9.190;2023-04-15T07:23:59;3.87;;;3.87;;
11510;SDS011;5812;48.864;9.190;2023-04-15T07:26:25;4.07;;;4.07;;
11510;SDS011;5812;48.864;9.190;2023-04-15T07:28:51;4.10;;;4.10;;
11510;SDS011;5812;48.864;9.190;2023-04-15T07:31:16;3.70;;;3.70;;
11510;SDS011;5812;48.864;9.190;2023-04-15T07:33:42;3.83;;;3.83;;
11510;SDS011;5812;48.864;9.190;2023-04-15T07:36:08;4.40;;;4.40;;
11510;SDS011;5812;48.864;9.190;2023-04-15T07:38:34;3.77;;;3.77;;
11510;SDS011;5812;48.864;9.190;2023-04-15T07:41:00;4.17;;;4.17;;
11510;SDS011;5812;48.864;9.190;2023-04-15T07:43:26;4.30;;;4.30;;
11510;SDS011;5812;48.864;9.190;2023-04-15T07:45:52;3.23;;;3.23;;
11510;SDS011;5812;48.864;9.190;2023-04-15T07:48:17;3.53;;;3.53;;
11510;SDS011;5812;48.864;9.190;2023-04-15T07:50:43;4.07;;;4.07;;
11510;SDS011;5812;48.864;9.190;2023-04-15T07:53:08;4.07;;;4.07;;
11510;SDS011;5812;48.864;9.190;2023-04-15T07:55:34;4.13;;;4.13;;
11510;SDS011;5812;48.864;9.190;2023-04-15T07:58:00;3.70;;;3.70;;
11510;SDS011;5812;48.864;9.190;2023-04-15T08:00:25;3.90;;;3.90;;
11510;SDS011;5812;48.864;9.190;2023-04-15T08:02:52;3.40;;;3.40;;
11510;SDS011;5812;48.864;9.190;2023-04-15T08:05:18;3.67;;;3.67;;
11510;SDS011;5812;48.864;9.190;2023-04-15T08:07:44;4.10;;;4.10;;
11510;SDS011;5812;48.864;9.190;2023-04-15T08:10:10;3.90;;;3.90;;
11510;SDS011;5812;48.864;9.190;2023-04-15T08:12:36;3.90;;;3.90;;
11510;SDS011;5812;48.864;9.190;2023-04-15T08:15:02;3.87;;;3.87;;
11510;SDS011;5812;48.864;9.190;2023-04-15T08:17:28;3.80;;;3.80;;
11510;SDS011;5812;48.864;9.190;2023-04-15T08:19:54;3.90;;;3.90;;
11510;SDS011;5812;48.864;9.190;2023-04-15T08:22:19;4.03;;;4.03;;
11510;SDS011;5812;48.864;9.190;2023-04-15T08:24:45;3.30;;;3.30;;
11510;SDS011;5812;48.864;9.190;2023-04-15T08:27:11;3.70;;;3.70;;
11510;SDS011;5812;48.864;9.190;2023-04-15T08:29:37;3.40;;;3.40;;
11510;SDS011;5812;48.864;9.190;2023-04-15T08:32:03;2.97;;;2.97;;
11510;SDS011;5812;48.864;9.190;2023-04-15T08:34:29;3.50;;;3.50;;
11510;SDS011;5812;48.864;9.190;2023-04-15T08:36:54;3.43;;;3.43;;
11510;SDS011;5812;48.864;9.190;2023-04-15T08:39:20;3.50;;;3.50;;
11510;SDS011;5812;48.864;9.190;2023-04-15T08:41:47;3.43;;;3.43;;
11510;SDS011;5812;48.864;9.190;2023-04-15T08:44:18;3.10;;;3.10;;
11510;SDS011;5812;48.864;9.190;2023-04-15T08:46:45;2.80;;;2.80;;
11510;SDS011;5812;48.864;9.190;2023-04-15T08:49:12;3.10;;;3.10;;
11510;SDS011;5812;48.864;9.190;2023-04-15T08:51:38;3.27;;;3.27;;
11510;SDS011;5812;48.864;9.190;2023-04-15T08:54:05;2.53;;;2.53;;
11510;SDS011;5812;48.864;9.190;2023-04-15T08:56:32;2.13;;;2.13;;
11510;SDS011;5812;48.864;9.190;2023-04-15T08:58:59;1.90;;;1.90;;
11510;SDS011;5812;48.864;9.190;2023-04-15T09:01:25;2.10;;;2.10;;
11510;SDS011;5812;48.864;9.190;2023-04-15T09:03:51;2.00;;;2.00;;
11510;SDS011;5812;48.864;9.190;2023-04-15T09:06:21;2.22;;;2.22;;
11510;SDS011;5812;48.864;9.190;2023-04-15T09:08:47;2.30;;;2.30;;
11510;SDS011;5812;48.864;9.190;2023-04-15T09:11:14;2.20;;;2.20;;
11510;SDS011;5812;48.864;9.190;2023-04-15T09:13:41;2.42;;;2.42;;
11510;SDS011;5812;48.864;9.190;2023-04-15T09:16:07;2.40;;;2.40;;
11510;SDS011;5812;48.864;9.190;2023-04-15T09:18:33;2.33;;;2.33;;
11510;SDS011;5812;48.864;9.190;2023-04-15T09:23:30;2.97;;;2.97;;
11510;SDS011;5812;48.864;9.190;2023-04-15T09:25:56;2.60;;;2.60;;
11510;SDS011;5812;48.864;9.190;2023-04-15T09:28:22;3.93;;;3.93;;
11510;SDS011;5812;48.864;9.190;2023-04-15T09:30:59;2.80;;;2.80;;
11510;SDS011;5812;48.864;9.190;2023-04-15T09:33:26;1.73;;;1.73;;
11510;SDS011;5812;48.864;9.190;2023-04-15T09:35:56;2.30;;;2.30;;
11510;SDS011;5812;48.864;9.190;2023-04-15T09:38:29;1.97;;;1.97;;
11510;SDS011;5812;48.864;9.190;2023-04-15T09:40:56;2.40;;;2.40;;
11510;SDS011;5812;48.864;9.190;2023-04-15T09:43:25;2.30;;;2.30;;
11510;SDS011;5812;48.864;9.190;2023-04-15T09:46:02;1.90;;;1.90;;
11510;SDS011;5812;48.864;9.190;2023-04-15T09:48:28;2.37;;;2.37;;
11510;SDS011;5812;48.864;9.190;2023-04-15T09:50:58;2.67;;;2.67;;
11510;SDS011;5812;48.864;9.190;2023-04-15T09:53:25;2.27;;;2.27;;
11510;SDS011;5812;48.864;9.190;2023-04-15T09:55:52;2.30;;;2.30;;
11510;SDS011;5812;48.864;9.190;2023-04-15T09:58:23;2.70;;;2.70;;
11510;SDS011;5812;48.864;9.190;2023-04-15T10:00:50;2.07;;;2.07;;
11510;SDS011;5812;48.864;9.190;2023-04-15T10:03:18;2.13;;;2.13;;
11510;SDS011;5812;48.864;9.190;2023-04-15T10:05:46;3.28;;;3.28;;
11510;SDS011;5812;48.864;9.190;2023-04-15T10:08:14;2.40;;;2.40;;
11510;SDS011;5812;48.864;9.190;2023-04-15T10:10:42;2.58;;;2.58;;
11510;SDS011;5812;48.864;9.190;2023-04-15T10:13:09;2.23;;;2.23;;
11510;SDS011;5812;48.864;9.190;2023-04-15T10:15:35;2.70;;;2.70;;
11510;SDS011;5812;48.864;9.190;2023-04-15T10:18:02;2.58;;;2.58;;
11510;SDS011;5812;48.864;9.190;2023-04-15T10:20:31;2.35;;;2.35;;
11510;SDS011;5812;48.864;9.190;2023-04-15T10:22:59;1.75;;;1.75;;
11510;SDS011;5812;48.864;9.190;2023-04-15T10:25:26;2.15;;;2.15;;
11510;SDS011;5812;48.864;9.190;2023-04-15T10:27:53;2.15;;;2.15;;
11510;SDS011;5812;48.864;9.190;2023-04-15T10:30:20;1.60;;;1.60;;
11510;SDS011;5812;48.864;9.190;2023-04-15T10:32:47;2.00;;;2.00;;
11510;SDS011;5812;48.864;9.190;2023-04-15T10:35:13;2.20;;;2.20;;
11510;SDS011;5812;48.864;9.190;2023-04-15T10:37:40;2.22;;;2.22;;
11510;SDS011;5812;48.864;9.190;2023-04-15T10:42:54;2.42;;;2.42;;
11510;SDS011;5812;48.864;9.190;2023-04-15T10:45:21;2.80;;;2.80;;
11510;SDS011;5812;48.864;9.190;2023-04-15T10:47:50;1.90;;;1.90;;
11510;SDS011;5812;48.864;9.190;2023-04-15T10:50:18;2.38;;;2.38;;
11510;SDS011;5812;48.864;9.190;2023-04-15T10:52:45;2.28;;;2.28;;
11510;SDS011;5812;48.864;9.190;2023-04-15T10:55:17;2.47;;;2.47;;
11510;SDS011;5812;48.864;9.190;2023-04-15T10:57:45;2.60;;;2.60;;
11510;SDS011;5812;48.864;9.190;2023-04-15T11:00:14;2.15;;;2.15;;
11510;SDS011;5812;48.864;9.190;2023-04-15T11:02:50;2.90;;;2.90;;
11510;SDS011;5812;48.864;9.190;2023-04-15T11:05:21;1.95;;;1.95;;
11510;SDS011;5812;48.864;9.190;2023-04-15T11:08:05;2.95;;;2.95;;
11510;SDS011;5812;48.864;9.190;2023-04-15T11:12:59;2.97;;;2.97;;
11510;SDS011;5812;48.864;9.190;2023-04-15T11:18:10;2.65;;;2.65;;
11510;SDS011;5812;48.864;9.190;2023-04-15T11:20:41;2.78;;;2.78;;
11510;SDS011;5812;48.864;9.190;2023-04-15T11:23:12;2.60;;;2.60;;
11510;SDS011;5812;48.864;9.190;2023-04-15T11:25:39;2.33;;;2.33;;
11510;SDS011;5812;48.864;9.190;2023-04-15T11:28:05;2.40;;;2.40;;
11510;SDS011;5812;48.864;9.190;2023-04-15T11:30:33;3.10;;;3.10;;
11510;SDS011;5812;48.864;9.190;2023-04-15T11:33:01;2.47;;;2.47;;
11510;SDS011;5812;48.864;9.190;2023-04-15T11:35:28;2.60;;;2.60;;
11510;SDS011;5812;48.864;9.190;2023-04-15T11:37:54;2.65;;;2.65;;
11510;SDS011;5812;48.864;9.190;2023-04-15T11:40:24;2.42;;;2.42;;
11510;SDS011;5812;48.864;9.190;2023-04-15T11:43:09;2.70;;;2.70;;
11510;SDS011;5812;48.864;9.190;2023-04-15T11:45:37;2.90;;;2.90;;
11510;SDS011;5812;48.864;9.190;2023-04-15T11:48:17;2.20;;;2.20;;
11510;SDS011;5812;48.864;9.190;2023-04-15T11:50:44;2.28;;;2.28;;
11510;SDS011;5812;48.864;9.190;2023-04-15T11:53:10;2.38;;;2.38;;
11510;SDS011;5812;48.864;9.190;2023-04-15T11:55:47;2.05;;;2.05;;
11510;SDS011;5812;48.864;9.190;2023-04-15T12:00:44;1.83;;;1.83;;
11510;SDS011;5812;48.864;9.190;2023-04-15T12:06:03;1.90;;;1.90;;
11510;SDS011;5812;48.864;9.190;2023-04-15T12:14:12;2.22;;;2.22;;
11510;SDS011;5812;48.864;9.190;2023-04-15T12:16:50;2.10;;;2.10;;
11510;SDS011;5812;48.864;9.190;2023-04-15T12:19:25;2.27;;;2.27;;
11510;SDS011;5812;48.864;9.190;2023-04-15T12:21:56;2.47;;;2.47;;
11510;SDS011;5812;48.864;9.190;2023-04-15T12:24:24;3.10;;;3.10;;
11510;SDS011;5812;48.864;9.190;2023-04-15T12:26:55;3.57;;;3.57;;
11510;SDS011;5812;48.864;9.190;2023-04-15T12:29:25;3.23;;;3.23;;
11510;SDS011;5812;48.864;9.190;2023-04-15T12:32:25;3.50;;;3.50;;
11510;SDS011;5812;48.864;9.190;2023-04-15T12:34:51;2.87;;;2.87;;
11510;SDS011;5812;48.864;9.190;2023-04-15T12:37:21;2.30;;;2.30;;
11510;SDS011;5812;48.864;9.190;2023-04-15T12:39:47;2.37;;;2.37;;
11510;SDS011;5812;48.864;9.190;2023-04-15T12:42:14;2.50;;;2.50;;
11510;SDS011;5812;48.864;9.190;2023-04-15T12:44:40;2.70;;;2.70;;
11510;SDS011;5812;48.864;9.190;2023-04-15T12:47:07;2.60;;;2.60;;
11510;SDS011;5812;48.864;9.190;2023-04-15T12:49:33;2.23;;;2.23;;
11510;SDS011;5812;48.864;9.190;2023-04-15T12:51:59;2.23;;;2.23;;
11510;SDS011;5812;48.864;9.190;2023-04-15T12:54:30;2.20;;;2.20;;
11510;SDS011;5812;48.864;9.190;2023-04-15T12:56:56;2.17;;;2.17;;
11510;SDS011;5812;48.864;9.190;2023-04-15T12:59:22;3.03;;;3.03;;
11510;SDS011;5812;48.864;9.190;2023-04-15T13:01:48;2.33;;;2.33;;
11510;SDS011;5812;48.864;9.190;2023-04-15T13:04:15;2.70;;;2.70;;
11510;SDS011;5812;48.864;9.190;2023-04-15T13:06:40;1.70;;;1.70;;
11510;SDS011;5812;48.864;9.190;2023-04-15T13:09:06;2.50;;;2.50;;
11510;SDS011;5812;48.864;9.190;2023-04-15T13:11:32;1.73;;;1.73;;
11510;SDS011;5812;48.864;9.190;2023-04-15T13:13:59;2.03;;;2.03;;
11510;SDS011;5812;48.864;9.190;2023-04-15T13:16:25;2.20;;;2.20;;
11510;SDS011;5812;48.864;9.190;2023-04-15T13:18:51;2.10;;;2.10;;
11510;SDS011;5812;48.864;9.190;2023-04-15T13:21:17;1.70;;;1.70;;
11510;SDS011;5812;48.864;9.190;2023-04-15T13:23:43;2.10;;;2.10;;
11510;SDS011;5812;48.864;9.190;2023-04-15T13:26:09;1.57;;;1.57;;
11510;SDS011;5812;48.864;9.190;2023-04-15T13:28:35;1.50;;;1.50;;
11510;SDS011;5812;48.864;9.190;2023-04-15T13:31:01;1.07;;;1.07;;
11510;SDS011;5812;48.864;9.190;2023-04-15T13:33:27;1.00;;;1.00;;
11510;SDS011;5812;48.864;9.190;2023-04-15T13:35:52;0.97;;;0.97;;
11510;SDS011;5812;48.864;9.190;2023-04-15T13:38:18;0.67;;;0.67;;
11510;SDS011;5812;48.864;9.190;2023-04-15T13:40:44;0.63;;;0.63;;
11510;SDS011;5812;48.864;9.190;2023-04-15T13:43:10;0.93;;;0.93;;
11510;SDS011;5812;48.864;9.190;2023-04-15T13:45:36;0.87;;;0.87;;
11510;SDS011;5812;48.864;9.190;2023-04-15T13:48:01;0.50;;;0.50;;
11510;SDS011;5812;48.864;9.190;2023-04-15T13:50:27;0.60;;;0.60;;
11510;SDS011;5812;48.864;9.190;2023-04-15T13:52:53;0.77;;;0.77;;
11510;SDS011;5812;48.864;9.190;2023-04-15T13:55:19;0.70;;;0.70;;
11510;SDS011;5812;48.864;9.190;2023-04-15T13:57:44;0.83;;;0.83;;
11510;SDS011;5812;48.864;9.190;2023-04-15T14:00:10;0.70;;;0.70;;
11510;SDS011;5812;48.864;9.190;2023-04-15T14:02:36;0.53;;;0.53;;
11510;SDS011;5812;48.864;9.190;2023-04-15T14:05:02;0.60;;;0.60;;
11510;SDS011;5812;48.864;9.190;2023-04-15T14:07:28;0.70;;;0.70;;
11510;SDS011;5812;48.864;9.190;2023-04-15T14:09:54;0.60;;;0.60;;
11510;SDS011;5812;48.864;9.190;2023-04-15T14:12:20;0.53;;;0.53;;
11510;SDS011;5812;48.864;9.190;2023-04-15T14:14:46;0.50;;;0.50;;
11510;SDS011;5812;48.864;9.190;2023-04-15T14:17:11;0.70;;;0.70;;
11510;SDS011;5812;48.864;9.190;2023-04-15T14:19:37;0.83;;;0.83;;
11510;SDS011;5812;48.864;9.190;2023-04-15T14:22:03;1.20;;;1.20;;
11510;SDS011;5812;48.864;9.190;2023-04-15T14:24:29;0.90;;;0.90;;
11510;SDS011;5812;48.864;9.190;2023-04-15T14:26:54;1.07;;;1.07;;
11510;SDS011;5812;48.864;9.190;2023-04-15T14:29:21;0.90;;;0.90;;
11510;SDS011;5812;48.864;9.190;2023-04-15T14:31:47;0.80;;;0.80;;
11510;SDS011;5812;48.864;9.190;2023-04-15T14:34:13;0.77;;;0.77;;
11510;SDS011;5812;48.864;9.190;2023-04-15T14:36:40;0.97;;;0.97;;
11510;SDS011;5812;48.864;9.190;2023-04-15T14:39:06;0.90;;;0.90;;
11510;SDS011;5812;48.864;9.190;2023-04-15T14:41:32;1.07;;;1.07;;
11510;SDS011;5812;48.864;9.190;2023-04-15T14:43:58;0.80;;;0.80;;
11510;SDS011;5812;48.864;9.190;2023-04-15T14:46:24;1.23;;;1.23;;
11510;SDS011;5812;48.864;9.190;2023-04-15T14:48:50;0.80;;;0.80;;
11510;SDS011;5812;48.864;9.190;2023-04-15T14:51:15;0.90;;;0.90;;
11510;SDS011;5812;48.864;9.190;2023-04-15T14:53:41;0.80;;;0.80;;
11510;SDS011;5812;48.864;9.190;2023-04-15T14:56:07;0.90;;;0.90;;
11510;SDS011;5812;48.864;9.190;2023-04-15T14:58:33;0.93;;;0.93;;
11510;SDS011;5812;48.864;9.190;2023-04-15T15:00:59;1.67;;;1.67;;
11510;SDS011;5812;48.864;9.190;2023-04-15T15:03:26;1.07;;;1.07;;
11510;SDS011;5812;48.864;9.190;2023-04-15T15:05:52;1.10;;;1.10;;
11510;SDS011;5812;48.864;9.190;2023-04-15T15:08:18;1.03;;;1.03;;
11510;SDS011;5812;48.864;9.190;2023-04-15T15:10:44;1.00;;;1.00;;
11510;SDS011;5812;48.864;9.190;2023-04-15T15:13:10;1.13;;;1.13;;
11510;SDS011;5812;48.864;9.190;2023-04-15T15:15:36;0.83;;;0.83;;
11510;SDS011;5812;48.864;9.190;2023-04-15T15:18:02;0.97;;;0.97;;